Wetterdaten: Woche 17.09.18 - 23.09.18 (KW38)
Datum Zeit Temperatur Luftfeuchte Luftdruck Niederschlag Windrichtung Sonnenschein Solar Wind
17.09.2018 00:00 13,4 C 95 % 1019,3 hPa 0,0 l/m N 0,00 h 0 W/m 0,0 km/h (0 Bft)
17.09.2018 01:00 12,9 C 96 % 1019,4 hPa 0,0 l/m N 0,00 h 0 W/m 0,0 km/h (0 Bft)
17.09.2018 02:00 12,4 C 97 % 1019,3 hPa 0,0 l/m N 0,00 h 0 W/m 0,0 km/h (0 Bft)
17.09.2018 03:00 11,8 C 97 % 1019,0 hPa 0,0 l/m N 0,00 h 0 W/m 0,0 km/h (0 Bft)
17.09.2018 04:00 11,3 C 97 % 1018,9 hPa 0,0 l/m N 0,00 h 0 W/m 0,0 km/h (0 Bft)
17.09.2018 05:00 10,8 C 98 % 1019,1 hPa 0,0 l/m N 0,00 h 0 W/m 0,0 km/h (0 Bft)
17.09.2018 06:00 10,7 C 98 % 1019,4 hPa 0,0 l/m N 0,00 h 0 W/m 0,0 km/h (0 Bft)
17.09.2018 07:00 11,1 C 98 % 1019,8 hPa 0,0 l/m N 0,08 h 30 W/m 0,0 km/h (0 Bft)
17.09.2018 08:00 11,5 C 99 % 1020,0 hPa 0,0 l/m N 0,50 h 126 W/m 0,4 km/h (0 Bft)
17.09.2018 09:00 13,3 C 100 % 1019,9 hPa 0,0 l/m O-NO 0,33 h 217 W/m 2,4 km/h (1 Bft)
17.09.2018 10:00 15,8 C 99 % 1019,6 hPa 0,0 l/m S-SO 1,00 h 412 W/m 9,4 km/h (2 Bft)
17.09.2018 11:00 18,5 C 92 % 1019,3 hPa 0,0 l/m S-SO 1,00 h 631 W/m 1,3 km/h (1 Bft)
17.09.2018 12:00 22,3 C 69 % 1018,7 hPa 0,0 l/m S-SO 1,00 h 687 W/m 4,3 km/h (1 Bft)
17.09.2018 13:00 24,3 C 53 % 1018,1 hPa 0,0 l/m S-SO 1,00 h 697 W/m 6,1 km/h (2 Bft)
17.09.2018 14:00 25,6 C 47 % 1017,5 hPa 0,0 l/m N-NW 1,00 h 663 W/m 6,6 km/h (2 Bft)
17.09.2018 15:00 26,1 C 42 % 1016,9 hPa 0,0 l/m N 1,00 h 584 W/m 7,9 km/h (2 Bft)
17.09.2018 16:00 26,3 C 40 % 1016,3 hPa 0,0 l/m O-SO 1,00 h 457 W/m 6,3 km/h (2 Bft)
17.09.2018 17:00 25,9 C 43 % 1015,8 hPa 0,0 l/m O-SO 1,00 h 299 W/m 4,4 km/h (1 Bft)
17.09.2018 18:00 24,8 C 48 % 1015,4 hPa 0,0 l/m O-SO 0,58 h 96 W/m 5,3 km/h (1 Bft)
17.09.2018 19:00 21,3 C 62 % 1015,5 hPa 0,0 l/m N 0,08 h 12 W/m 0,4 km/h (0 Bft)
17.09.2018 20:00 17,8 C 76 % 1015,8 hPa 0,0 l/m N 0,00 h 0 W/m 0,0 km/h (0 Bft)
17.09.2018 21:00 16,3 C 82 % 1015,8 hPa 0,0 l/m N 0,00 h 0 W/m 0,0 km/h (0 Bft)
17.09.2018 22:00 15,3 C 86 % 1015,7 hPa 0,0 l/m N 0,00 h 0 W/m 0,0 km/h (0 Bft)
17.09.2018 23:00 14,7 C 89 % 1015,5 hPa 0,0 l/m N 0,00 h 0 W/m 0,0 km/h (0 Bft)
18.09.2018 00:00 14,1 C 91 % 1015,4 hPa 0,0 l/m N 0,00 h 0 W/m 0,0 km/h (0 Bft)
18.09.2018 01:00 13,3 C 93 % 1015,3 hPa 0,0 l/m N 0,00 h 0 W/m 0,0 km/h (0 Bft)
18.09.2018 02:00 12,8 C 94 % 1015,2 hPa 0,0 l/m N 0,00 h 0 W/m 0,0 km/h (0 Bft)
18.09.2018 03:00 12,1 C 94 % 1015,1 hPa 0,0 l/m N 0,00 h 0 W/m 0,1 km/h (0 Bft)
18.09.2018 04:00 11,9 C 95 % 1015,2 hPa 0,0 l/m N 0,00 h 0 W/m 0,0 km/h (0 Bft)
18.09.2018 05:00 11,6 C 95 % 1015,3 hPa 0,0 l/m N 0,00 h 0 W/m 0,0 km/h (0 Bft)
18.09.2018 06:00 11,1 C 95 % 1015,5 hPa 0,0 l/m N 0,00 h 0 W/m 0,0 km/h (0 Bft)
18.09.2018 07:00 10,7 C 95 % 1015,9 hPa 0,0 l/m N 0,00 h 31 W/m 0,0 km/h (0 Bft)
18.09.2018 08:00 11,6 C 97 % 1016,2 hPa 0,0 l/m N 0,75 h 146 W/m 0,0 km/h (0 Bft)
18.09.2018 09:00 15,2 C 92 % 1016,4 hPa 0,0 l/m N 1,00 h 335 W/m 0,4 km/h (0 Bft)
18.09.2018 10:00 19,7 C 79 % 1016,1 hPa 0,0 l/m S 1,00 h 480 W/m 12,1 km/h (2 Bft)
18.09.2018 11:00 22,3 C 69 % 1016,0 hPa 0,0 l/m S 0,83 h 580 W/m 11,8 km/h (2 Bft)
18.09.2018 12:00 24,4 C 63 % 1015,7 hPa 0,0 l/m SW 0,92 h 615 W/m 13,4 km/h (3 Bft)
18.09.2018 13:00 25,9 C 52 % 1015,4 hPa 0,0 l/m W-SW 1,00 h 692 W/m 19,2 km/h (3 Bft)
18.09.2018 14:00 26,1 C 51 % 1015,1 hPa 0,0 l/m W 0,83 h 561 W/m 22,9 km/h (4 Bft)
18.09.2018 15:00 24,1 C 59 % 1014,7 hPa 0,0 l/m W 0,00 h 223 W/m 18,2 km/h (3 Bft)
18.09.2018 16:00 23,3 C 65 % 1014,5 hPa 0,0 l/m S-SW 0,00 h 152 W/m 13,7 km/h (3 Bft)
18.09.2018 17:00 23,0 C 68 % 1014,5 hPa 0,0 l/m S-SW 0,83 h 239 W/m 14,9 km/h (3 Bft)
18.09.2018 18:00 22,6 C 66 % 1014,4 hPa 0,0 l/m SW 0,50 h 79 W/m 11,8 km/h (2 Bft)
18.09.2018 19:00 20,2 C 74 % 1014,7 hPa 0,0 l/m N 0,00 h 8 W/m 0,0 km/h (0 Bft)
18.09.2018 20:00 17,7 C 84 % 1015,2 hPa 0,0 l/m N 0,00 h 0 W/m 0,0 km/h (0 Bft)
18.09.2018 21:00 17,5 C 83 % 1016,0 hPa 0,0 l/m N 0,00 h 0 W/m 1,1 km/h (0 Bft)
18.09.2018 22:00 16,1 C 87 % 1016,4 hPa 0,0 l/m N 0,00 h 0 W/m 0,0 km/h (0 Bft)
18.09.2018 23:00 14,9 C 89 % 1016,7 hPa 0,0 l/m N 0,00 h 0 W/m 0,5 km/h (0 Bft)
19.09.2018 00:00 15,6 C 87 % 1016,8 hPa 0,0 l/m W 0,00 h 0 W/m 3,2 km/h (1 Bft)
19.09.2018 01:00 14,9 C 87 % 1017,0 hPa 0,0 l/m S-SW 0,00 h 0 W/m 0,7 km/h (0 Bft)
19.09.2018 02:00 14,2 C 90 % 1017,3 hPa 0,0 l/m SW 0,00 h 0 W/m 2,3 km/h (1 Bft)
19.09.2018 03:00 14,0 C 91 % 1017,2 hPa 0,0 l/m N 0,00 h 0 W/m 0,0 km/h (0 Bft)
19.09.2018 04:00 13,7 C 93 % 1017,5 hPa 0,0 l/m N 0,00 h 0 W/m 1,3 km/h (1 Bft)
19.09.2018 05:00 13,5 C 93 % 1017,5 hPa 0,0 l/m N 0,00 h 0 W/m 0,0 km/h (0 Bft)
19.09.2018 06:00 12,9 C 93 % 1017,6 hPa 0,0 l/m N 0,00 h 0 W/m 0,0 km/h (0 Bft)
19.09.2018 07:00 12,3 C 94 % 1018,2 hPa 0,0 l/m N 0,08 h 30 W/m 0,0 km/h (0 Bft)
19.09.2018 08:00 13,1 C 96 % 1018,6 hPa 0,0 l/m N 0,67 h 142 W/m 0,0 km/h (0 Bft)
19.09.2018 09:00 16,5 C 90 % 1018,8 hPa 0,0 l/m N 1,00 h 340 W/m 1,3 km/h (1 Bft)
19.09.2018 10:00 20,0 C 75 % 1019,0 hPa 0,0 l/m SW 1,00 h 477 W/m 8,9 km/h (2 Bft)
19.09.2018 11:00 22,4 C 64 % 1019,0 hPa 0,0 l/m S 0,92 h 600 W/m 11,4 km/h (2 Bft)
19.09.2018 12:00 24,4 C 55 % 1018,7 hPa 0,0 l/m S 1,00 h 659 W/m 11,8 km/h (2 Bft)
19.09.2018 13:00 25,5 C 49 % 1018,4 hPa 0,0 l/m S-SW 1,00 h 680 W/m 10,3 km/h (2 Bft)
19.09.2018 14:00 26,4 C 45 % 1018,1 hPa 0,0 l/m SW 1,00 h 650 W/m 12,0 km/h (2 Bft)
19.09.2018 15:00 26,9 C 42 % 1017,7 hPa 0,0 l/m S-SO 1,00 h 533 W/m 11,6 km/h (2 Bft)
19.09.2018 16:00 27,0 C 45 % 1017,4 hPa 0,0 l/m S-SO 1,00 h 419 W/m 10,4 km/h (2 Bft)
19.09.2018 17:00 26,2 C 47 % 1017,3 hPa 0,0 l/m S-SW 1,00 h 249 W/m 7,4 km/h (2 Bft)
19.09.2018 18:00 24,6 C 54 % 1017,3 hPa 0,0 l/m S-SW 0,33 h 75 W/m 3,9 km/h (1 Bft)
19.09.2018 19:00 21,0 C 69 % 1017,5 hPa 0,0 l/m N 0,17 h 13 W/m 0,0 km/h (0 Bft)
19.09.2018 20:00 18,7 C 77 % 1018,0 hPa 0,0 l/m N 0,00 h 0 W/m 0,0 km/h (0 Bft)
19.09.2018 21:00 17,2 C 82 % 1018,4 hPa 0,0 l/m N 0,00 h 0 W/m 0,0 km/h (0 Bft)
19.09.2018 22:00 16,4 C 84 % 1018,5 hPa 0,0 l/m N 0,00 h 0 W/m 0,0 km/h (0 Bft)
19.09.2018 23:00 15,6 C 85 % 1018,5 hPa 0,0 l/m N 0,00 h 0 W/m 0,0 km/h (0 Bft)
20.09.2018 00:00 14,9 C 86 % 1018,3 hPa 0,0 l/m N 0,00 h 0 W/m 0,0 km/h (0 Bft)
20.09.2018 01:00 14,2 C 89 % 1018,4 hPa 0,0 l/m N 0,00 h 0 W/m 0,0 km/h (0 Bft)
20.09.2018 02:00 13,6 C 90 % 1018,3 hPa 0,0 l/m N 0,00 h 0 W/m 0,0 km/h (0 Bft)
20.09.2018 03:00 13,0 C 91 % 1018,2 hPa 0,0 l/m N 0,00 h 0 W/m 0,0 km/h (0 Bft)
20.09.2018 04:00 12,6 C 92 % 1018,2 hPa 0,0 l/m N 0,00 h 0 W/m 0,0 km/h (0 Bft)
20.09.2018 05:00 12,0 C 93 % 1018,2 hPa 0,0 l/m N 0,00 h 0 W/m 0,0 km/h (0 Bft)
20.09.2018 06:00 11,5 C 93 % 1018,4 hPa 0,0 l/m N 0,00 h 0 W/m 0,0 km/h (0 Bft)
20.09.2018 07:00 11,4 C 94 % 1018,5 hPa 0,0 l/m N 0,08 h 30 W/m 0,0 km/h (0 Bft)
20.09.2018 08:00 12,0 C 96 % 1018,8 hPa 0,0 l/m N 0,67 h 138 W/m 0,0 km/h (0 Bft)
20.09.2018 09:00 15,9 C 89 % 1018,8 hPa 0,0 l/m S-SW 1,00 h 325 W/m 3,5 km/h (1 Bft)
20.09.2018 10:00 19,7 C 74 % 1018,8 hPa 0,0 l/m S-SW 1,00 h 466 W/m 8,8 km/h (2 Bft)
20.09.2018 11:00 22,6 C 66 % 1018,4 hPa 0,0 l/m S 0,92 h 590 W/m 10,1 km/h (2 Bft)
20.09.2018 12:00 25,3 C 57 % 1017,6 hPa 0,0 l/m S-SO 1,00 h 660 W/m 10,9 km/h (2 Bft)
20.09.2018 13:00 26,7 C 49 % 1016,9 hPa 0,0 l/m S-SW 1,00 h 676 W/m 12,2 km/h (2 Bft)
20.09.2018 14:00 27,3 C 46 % 1016,3 hPa 0,0 l/m SW 0,83 h 540 W/m 10,1 km/h (2 Bft)
20.09.2018 15:00 27,9 C 46 % 1015,6 hPa 0,0 l/m S-SW 1,00 h 552 W/m 11,0 km/h (2 Bft)
20.09.2018 16:00 27,9 C 45 % 1015,1 hPa 0,0 l/m SO 1,00 h 407 W/m 9,9 km/h (2 Bft)
20.09.2018 17:00 27,1 C 45 % 1014,5 hPa 0,0 l/m S-SW 1,00 h 259 W/m 8,2 km/h (2 Bft)
20.09.2018 18:00 25,2 C 51 % 1014,2 hPa 0,0 l/m S-SW 0,42 h 75 W/m 3,9 km/h (1 Bft)
20.09.2018 19:00 21,1 C 68 % 1014,1 hPa 0,0 l/m N 0,00 h 9 W/m 0,0 km/h (0 Bft)
20.09.2018 20:00 18,5 C 75 % 1014,3 hPa 0,0 l/m N 0,00 h 0 W/m 0,0 km/h (0 Bft)
20.09.2018 21:00 17,1 C 80 % 1014,1 hPa 0,0 l/m N 0,00 h 0 W/m 0,0 km/h (0 Bft)
20.09.2018 22:00 16,3 C 82 % 1013,9 hPa 0,0 l/m N 0,00 h 0 W/m 0,0 km/h (0 Bft)
20.09.2018 23:00 15,4 C 84 % 1013,7 hPa 0,0 l/m N 0,00 h 0 W/m 0,0 km/h (0 Bft)
21.09.2018 00:00 14,6 C 86 % 1013,5 hPa 0,0 l/m N 0,00 h 0 W/m 0,0 km/h (0 Bft)
21.09.2018 01:00 13,7 C 88 % 1013,2 hPa 0,0 l/m N 0,00 h 0 W/m 0,0 km/h (0 Bft)
21.09.2018 02:00 12,9 C 89 % 1012,9 hPa 0,0 l/m N 0,00 h 0 W/m 0,0 km/h (0 Bft)
21.09.2018 03:00 12,3 C 90 % 1012,5 hPa 0,0 l/m N 0,00 h 0 W/m 0,0 km/h (0 Bft)
21.09.2018 04:00 11,8 C 92 % 1012,3 hPa 0,0 l/m N 0,00 h 0 W/m 0,0 km/h (0 Bft)
21.09.2018 05:00 11,3 C 92 % 1011,9 hPa 0,0 l/m N 0,00 h 0 W/m 0,0 km/h (0 Bft)
21.09.2018 06:00 10,7 C 93 % 1011,7 hPa 0,0 l/m N 0,00 h 0 W/m 0,0 km/h (0 Bft)
21.09.2018 07:00 10,8 C 94 % 1011,7 hPa 0,0 l/m N 0,17 h 29 W/m 0,0 km/h (0 Bft)
21.09.2018 08:00 12,8 C 95 % 1011,8 hPa 0,0 l/m N 0,67 h 145 W/m 0,4 km/h (0 Bft)
21.09.2018 09:00 17,3 C 88 % 1011,5 hPa 0,0 l/m S-SW 1,00 h 318 W/m 14,2 km/h (3 Bft)
21.09.2018 10:00 20,4 C 74 % 1011,2 hPa 0,0 l/m S-SW 0,92 h 502 W/m 17,0 km/h (3 Bft)
21.09.2018 11:00 23,1 C 62 % 1010,9 hPa 0,0 l/m W-SW 0,67 h 429 W/m 28,6 km/h (4 Bft)
21.09.2018 12:00 24,9 C 55 % 1010,6 hPa 0,0 l/m SW 1,00 h 650 W/m 32,2 km/h (5 Bft)
21.09.2018 13:00 25,6 C 52 % 1009,9 hPa 0,0 l/m W-SW 0,92 h 571 W/m 29,9 km/h (5 Bft)
21.09.2018 14:00 25,0 C 52 % 1009,4 hPa 0,0 l/m W-SW 0,25 h 279 W/m 27,0 km/h (4 Bft)
21.09.2018 15:00 25,2 C 50 % 1008,8 hPa 0,0 l/m W-SW 0,33 h 243 W/m 29,4 km/h (5 Bft)
21.09.2018 16:00 23,6 C 57 % 1009,0 hPa 0,0 l/m W 0,00 h 85 W/m 27,5 km/h (4 Bft)
21.09.2018 17:00 21,0 C 70 % 1009,2 hPa 0,0 l/m W 0,00 h 42 W/m 18,9 km/h (3 Bft)
21.09.2018 18:00 20,7 C 66 % 1010,0 hPa 0,0 l/m W 0,00 h 20 W/m 17,8 km/h (3 Bft)
21.09.2018 19:00 19,8 C 66 % 1011,6 hPa 0,0 l/m W 0,00 h 5 W/m 19,3 km/h (3 Bft)
21.09.2018 20:00 16,0 C 78 % 1014,0 hPa 0,2 l/m N-NW 0,00 h 0 W/m 22,5 km/h (4 Bft)
21.09.2018 21:00 13,8 C 74 % 1015,5 hPa 0,0 l/m W-NW 0,00 h 0 W/m 21,7 km/h (4 Bft)
21.09.2018 22:00 13,0 C 72 % 1017,1 hPa 0,0 l/m NW 0,00 h 0 W/m 13,4 km/h (3 Bft)
21.09.2018 23:00 12,6 C 75 % 1018,1 hPa 0,0 l/m W-NW 0,00 h 0 W/m 8,7 km/h (2 Bft)
22.09.2018 00:00 12,4 C 75 % 1019,1 hPa 0,0 l/m W 0,00 h 0 W/m 6,0 km/h (2 Bft)
22.09.2018 01:00 12,0 C 76 % 1019,7 hPa 0,0 l/m W 0,00 h 0 W/m 6,4 km/h (2 Bft)
22.09.2018 02:00 11,4 C 77 % 1020,0 hPa 0,0 l/m W-SW 0,00 h 0 W/m 8,7 km/h (2 Bft)
22.09.2018 03:00 11,0 C 78 % 1020,4 hPa 0,0 l/m W 0,00 h 0 W/m 9,0 km/h (2 Bft)
22.09.2018 04:00 10,7 C 79 % 1020,7 hPa 0,0 l/m N 0,00 h 0 W/m 0,5 km/h (0 Bft)
22.09.2018 05:00 10,3 C 83 % 1020,9 hPa 0,0 l/m N 0,00 h 0 W/m 0,4 km/h (0 Bft)
22.09.2018 06:00 9,7 C 87 % 1021,1 hPa 0,0 l/m N 0,00 h 0 W/m 0,0 km/h (0 Bft)
22.09.2018 07:00 9,1 C 89 % 1021,0 hPa 0,0 l/m N 0,00 h 25 W/m 0,0 km/h (0 Bft)
22.09.2018 08:00 9,6 C 92 % 1021,3 hPa 0,0 l/m N 0,50 h 125 W/m 0,0 km/h (0 Bft)
22.09.2018 09:00 11,3 C 86 % 1021,6 hPa 0,0 l/m N 0,58 h 218 W/m 0,0 km/h (0 Bft)
22.09.2018 10:00 12,8 C 77 % 1021,8 hPa 0,0 l/m N 0,67 h 313 W/m 2,1 km/h (1 Bft)
22.09.2018 11:00 14,0 C 65 % 1021,5 hPa 0,0 l/m W-SW 0,92 h 389 W/m 9,5 km/h (2 Bft)
22.09.2018 12:00 14,7 C 63 % 1021,2 hPa 0,0 l/m SW 0,58 h 362 W/m 12,2 km/h (2 Bft)
22.09.2018 13:00 15,4 C 60 % 1020,5 hPa 0,0 l/m SW 0,83 h 535 W/m 14,8 km/h (3 Bft)
22.09.2018 14:00 16,9 C 51 % 1019,7 hPa 0,0 l/m W-SW 1,00 h 637 W/m 19,3 km/h (3 Bft)
22.09.2018 15:00 17,4 C 48 % 1019,4 hPa 0,0 l/m SW 1,00 h 513 W/m 17,0 km/h (3 Bft)
22.09.2018 16:00 17,4 C 48 % 1018,9 hPa 0,0 l/m W-SW 1,00 h 376 W/m 15,4 km/h (3 Bft)
22.09.2018 17:00 16,8 C 49 % 1018,7 hPa 0,0 l/m W-SW 0,67 h 225 W/m 13,3 km/h (3 Bft)
22.09.2018 18:00 16,1 C 52 % 1018,2 hPa 0,0 l/m W-SW 0,08 h 41 W/m 11,8 km/h (2 Bft)
22.09.2018 19:00 15,2 C 56 % 1018,4 hPa 0,0 l/m SW 0,00 h 6 W/m 8,4 km/h (2 Bft)
22.09.2018 20:00 13,9 C 69 % 1018,7 hPa 0,0 l/m SW 0,00 h 0 W/m 0,8 km/h (0 Bft)
22.09.2018 21:00 13,8 C 71 % 1018,8 hPa 0,0 l/m SW 0,00 h 0 W/m 4,3 km/h (1 Bft)
22.09.2018 22:00 13,2 C 80 % 1018,6 hPa 0,2 l/m SW 0,00 h 0 W/m 5,1 km/h (1 Bft)
22.09.2018 23:00 12,7 C 86 % 1018,7 hPa 0,2 l/m SW 0,00 h 0 W/m 6,2 km/h (2 Bft)
23.09.2018 00:00 12,4 C 88 % 1019,3 hPa 0,2 l/m W-NW 0,00 h 0 W/m 12,2 km/h (2 Bft)
23.09.2018 01:00 11,7 C 91 % 1019,3 hPa 1,0 l/m SW 0,00 h 0 W/m 13,2 km/h (3 Bft)
23.09.2018 02:00 11,2 C 93 % 1018,7 hPa 0,4 l/m W-SW 0,00 h 0 W/m 17,6 km/h (3 Bft)
23.09.2018 03:00 11,1 C 94 % 1017,5 hPa 0,4 l/m SW 0,00 h 0 W/m 15,2 km/h (3 Bft)
23.09.2018 04:00 11,2 C 96 % 1016,4 hPa 0,0 l/m SW 0,00 h 0 W/m 19,0 km/h (3 Bft)
23.09.2018 05:00 11,8 C 97 % 1015,9 hPa 0,2 l/m SW 0,00 h 0 W/m 16,8 km/h (3 Bft)
23.09.2018 06:00 12,3 C 97 % 1015,5 hPa 0,0 l/m SW 0,00 h 0 W/m 17,4 km/h (3 Bft)
23.09.2018 07:00 13,3 C 93 % 1015,0 hPa 0,0 l/m W-SW 0,00 h 13 W/m 32,7 km/h (5 Bft)
23.09.2018 08:00 14,7 C 86 % 1014,9 hPa 0,0 l/m W-SW 0,00 h 58 W/m 23,7 km/h (4 Bft)
23.09.2018 09:00 16,0 C 82 % 1015,1 hPa 0,0 l/m W-SW 0,00 h 116 W/m 23,9 km/h (4 Bft)
23.09.2018 10:00 17,6 C 80 % 1014,8 hPa 0,0 l/m W-SW 0,42 h 352 W/m 27,4 km/h (4 Bft)
23.09.2018 11:00 19,8 C 77 % 1014,1 hPa 0,0 l/m W-SW 0,42 h 397 W/m 29,1 km/h (5 Bft)
23.09.2018 12:00 21,5 C 73 % 1013,3 hPa 0,0 l/m W-SW 0,92 h 684 W/m 33,8 km/h (5 Bft)
23.09.2018 13:00 22,8 C 69 % 1012,5 hPa 0,0 l/m W-SW 0,92 h 625 W/m 40,5 km/h (6 Bft)
23.09.2018 14:00 23,1 C 68 % 1010,8 hPa 0,0 l/m W-SW 0,42 h 324 W/m 35,5 km/h (5 Bft)
23.09.2018 15:00 24,3 C 64 % 1009,6 hPa 0,0 l/m W-SW 0,42 h 347 W/m 33,9 km/h (5 Bft)
23.09.2018 16:00 24,3 C 62 % 1008,4 hPa 0,0 l/m W 0,33 h 239 W/m 37,0 km/h (5 Bft)
23.09.2018 17:00 24,1 C 63 % 1007,3 hPa 0,0 l/m W-SW 0,83 h 225 W/m 39,3 km/h (6 Bft)
23.09.2018 18:00 23,1 C 64 % 1006,6 hPa 0,0 l/m W-SW 0,42 h 57 W/m 40,6 km/h (6 Bft)
23.09.2018 19:00 22,6 C 63 % 1006,5 hPa 0,0 l/m W 0,00 h 6 W/m 48,8 km/h (6 Bft)
23.09.2018 20:00 21,9 C 64 % 1007,6 hPa 5,2 l/m W 0,00 h 0 W/m 42,0 km/h (6 Bft)
23.09.2018 21:00 14,6 C 88 % 1010,3 hPa 5,2 l/m W-NW 0,00 h 0 W/m 30,6 km/h (5 Bft)
23.09.2018 22:00 13,1 C 92 % 1012,2 hPa 3,4 l/m NW 0,00 h 0 W/m 25,9 km/h (4 Bft)
23.09.2018 23:00 10,7 C 92 % 1016,2 hPa 0,0 l/m N 0,00 h 0 W/m 20,1 km/h (4 Bft)
Min-Datum _ 22.09.18 17.09.18 23.09.18 - - - - 17.09.18
_ Min-Zeit 07:40 16:00 18:30 - - - - 00:00
Minimum _ 8,8 C 38 % 1006,3 hPa - - - - 0,0 km/h (0 Bft)
Max-Datum _ 20.09.18 17.09.18 22.09.18 23.09.18 - 17.09.18 21.09.18 23.09.18
_ Max-Zeit 15:25 09:20 10:00 21:00 - 07:55 13:30 20:50
Maximum _ 28,2 C 100 % 1022,0 hPa 5,2 l/m - 0,08 h 819 W/m 61,2 km/h
W-SW (7 Bft)
Durchschnitt _ 17,1 C 76 % 1016,2 hPa #16,6 l/m SW #56:10 h 321 W/m 9,3 km/h (2 Bft)